sensor_id;sensor_type;location;lat;lon;timestamp;P1;durP1;ratioP1;P2;durP2;ratioP2
58615;SDS011;44385;51.992;4.206;2023-03-03T00:01:53;20.90;;;11.02;;
58615;SDS011;44385;51.992;4.206;2023-03-03T00:04:19;16.23;;;10.40;;
58615;SDS011;44385;51.992;4.206;2023-03-03T00:06:49;14.93;;;10.82;;
58615;SDS011;44385;51.992;4.206;2023-03-03T00:09:15;17.35;;;10.65;;
58615;SDS011;44385;51.992;4.206;2023-03-03T00:11:42;15.50;;;10.73;;
58615;SDS011;44385;51.992;4.206;2023-03-03T00:14:16;17.25;;;11.32;;
58615;SDS011;44385;51.992;4.206;2023-03-03T00:16:43;17.23;;;11.63;;
58615;SDS011;44385;51.992;4.206;2023-03-03T00:19:11;19.98;;;12.50;;
58615;SDS011;44385;51.992;4.206;2023-03-03T00:21:40;17.77;;;11.13;;
58615;SDS011;44385;51.992;4.206;2023-03-03T00:24:13;16.77;;;11.02;;
58615;SDS011;44385;51.992;4.206;2023-03-03T00:26:41;16.92;;;11.00;;
58615;SDS011;44385;51.992;4.206;2023-03-03T00:29:29;17.33;;;11.25;;
58615;SDS011;44385;51.992;4.206;2023-03-03T00:32:08;17.52;;;11.50;;
58615;SDS011;44385;51.992;4.206;2023-03-03T00:34:35;16.23;;;10.57;;
58615;SDS011;44385;51.992;4.206;2023-03-03T00:37:02;14.45;;;9.77;;
58615;SDS011;44385;51.992;4.206;2023-03-03T00:39:29;17.70;;;11.10;;
58615;SDS011;44385;51.992;4.206;2023-03-03T00:41:56;17.85;;;10.55;;
58615;SDS011;44385;51.992;4.206;2023-03-03T00:47:25;15.88;;;10.00;;
58615;SDS011;44385;51.992;4.206;2023-03-03T00:49:52;16.33;;;9.55;;
58615;SDS011;44385;51.992;4.206;2023-03-03T00:52:18;16.80;;;9.35;;
58615;SDS011;44385;51.992;4.206;2023-03-03T00:54:45;16.25;;;9.50;;
58615;SDS011;44385;51.992;4.206;2023-03-03T00:57:12;13.68;;;9.88;;
58615;SDS011;44385;51.992;4.206;2023-03-03T00:59:39;14.98;;;9.63;;
58615;SDS011;44385;51.992;4.206;2023-03-03T01:02:05;15.73;;;9.30;;
58615;SDS011;44385;51.992;4.206;2023-03-03T01:04:33;17.02;;;9.85;;
58615;SDS011;44385;51.992;4.206;2023-03-03T01:06:59;15.57;;;9.82;;
58615;SDS011;44385;51.992;4.206;2023-03-03T01:09:26;16.33;;;9.43;;
58615;SDS011;44385;51.992;4.206;2023-03-03T01:11:52;14.60;;;9.35;;
58615;SDS011;44385;51.992;4.206;2023-03-03T01:14:18;16.60;;;9.25;;
58615;SDS011;44385;51.992;4.206;2023-03-03T01:16:45;15.15;;;8.88;;
58615;SDS011;44385;51.992;4.206;2023-03-03T01:19:11;13.52;;;8.55;;
58615;SDS011;44385;51.992;4.206;2023-03-03T01:21:39;14.55;;;8.50;;
58615;SDS011;44385;51.992;4.206;2023-03-03T01:24:06;16.73;;;9.25;;
58615;SDS011;44385;51.992;4.206;2023-03-03T01:26:32;13.20;;;8.30;;
58615;SDS011;44385;51.992;4.206;2023-03-03T01:28:58;12.60;;;8.35;;
58615;SDS011;44385;51.992;4.206;2023-03-03T01:31:25;14.07;;;7.65;;
58615;SDS011;44385;51.992;4.206;2023-03-03T01:33:52;15.20;;;8.23;;
58615;SDS011;44385;51.992;4.206;2023-03-03T01:36:21;13.65;;;8.45;;
58615;SDS011;44385;51.992;4.206;2023-03-03T01:38:49;12.82;;;7.90;;
58615;SDS011;44385;51.992;4.206;2023-03-03T01:41:16;15.38;;;7.78;;
58615;SDS011;44385;51.992;4.206;2023-03-03T01:43:42;11.77;;;8.15;;
58615;SDS011;44385;51.992;4.206;2023-03-03T01:49:05;14.77;;;8.10;;
58615;SDS011;44385;51.992;4.206;2023-03-03T01:51:33;11.15;;;7.13;;
58615;SDS011;44385;51.992;4.206;2023-03-03T01:54:03;12.88;;;7.22;;
58615;SDS011;44385;51.992;4.206;2023-03-03T01:56:30;12.32;;;6.93;;
58615;SDS011;44385;51.992;4.206;2023-03-03T01:58:57;12.82;;;7.68;;
58615;SDS011;44385;51.992;4.206;2023-03-03T02:03:52;10.35;;;6.95;;
58615;SDS011;44385;51.992;4.206;2023-03-03T02:06:21;11.50;;;6.97;;
58615;SDS011;44385;51.992;4.206;2023-03-03T02:08:50;9.73;;;6.88;;
58615;SDS011;44385;51.992;4.206;2023-03-03T02:11:20;13.57;;;6.97;;
58615;SDS011;44385;51.992;4.206;2023-03-03T02:13:47;8.75;;;6.25;;
58615;SDS011;44385;51.992;4.206;2023-03-03T02:16:13;12.90;;;6.85;;
58615;SDS011;44385;51.992;4.206;2023-03-03T02:18:40;12.88;;;6.70;;
58615;SDS011;44385;51.992;4.206;2023-03-03T02:21:08;10.68;;;7.53;;
58615;SDS011;44385;51.992;4.206;2023-03-03T02:23:37;13.07;;;6.38;;
58615;SDS011;44385;51.992;4.206;2023-03-03T02:26:06;10.18;;;6.65;;
58615;SDS011;44385;51.992;4.206;2023-03-03T02:28:33;7.28;;;6.13;;
58615;SDS011;44385;51.992;4.206;2023-03-03T02:31:00;12.75;;;6.05;;
58615;SDS011;44385;51.992;4.206;2023-03-03T02:33:27;11.18;;;6.68;;
58615;SDS011;44385;51.992;4.206;2023-03-03T02:35:54;12.43;;;6.65;;
58615;SDS011;44385;51.992;4.206;2023-03-03T02:38:21;12.45;;;6.22;;
58615;SDS011;44385;51.992;4.206;2023-03-03T02:40:52;9.93;;;6.03;;
58615;SDS011;44385;51.992;4.206;2023-03-03T02:43:23;8.23;;;5.45;;
58615;SDS011;44385;51.992;4.206;2023-03-03T02:45:51;9.65;;;5.72;;
58615;SDS011;44385;51.992;4.206;2023-03-03T02:48:18;12.77;;;6.10;;
58615;SDS011;44385;51.992;4.206;2023-03-03T02:50:44;7.20;;;5.45;;
58615;SDS011;44385;51.992;4.206;2023-03-03T02:53:10;8.38;;;5.35;;
58615;SDS011;44385;51.992;4.206;2023-03-03T02:55:37;9.00;;;5.57;;
58615;SDS011;44385;51.992;4.206;2023-03-03T02:58:03;6.40;;;4.80;;
58615;SDS011;44385;51.992;4.206;2023-03-03T03:00:31;9.15;;;5.45;;
58615;SDS011;44385;51.992;4.206;2023-03-03T03:02:57;8.65;;;5.05;;
58615;SDS011;44385;51.992;4.206;2023-03-03T03:05:24;8.68;;;4.47;;
58615;SDS011;44385;51.992;4.206;2023-03-03T03:07:50;6.90;;;4.53;;
58615;SDS011;44385;51.992;4.206;2023-03-03T03:10:17;7.50;;;4.38;;
58615;SDS011;44385;51.992;4.206;2023-03-03T03:12:43;7.10;;;4.38;;
58615;SDS011;44385;51.992;4.206;2023-03-03T03:15:09;6.75;;;4.68;;
58615;SDS011;44385;51.992;4.206;2023-03-03T03:17:37;9.32;;;4.10;;
58615;SDS011;44385;51.992;4.206;2023-03-03T03:20:04;8.75;;;4.30;;
58615;SDS011;44385;51.992;4.206;2023-03-03T03:22:31;9.40;;;4.30;;
58615;SDS011;44385;51.992;4.206;2023-03-03T03:24:57;7.78;;;4.43;;
58615;SDS011;44385;51.992;4.206;2023-03-03T03:27:23;7.68;;;4.40;;
58615;SDS011;44385;51.992;4.206;2023-03-03T03:29:50;6.75;;;4.22;;
58615;SDS011;44385;51.992;4.206;2023-03-03T03:32:16;8.18;;;4.63;;
58615;SDS011;44385;51.992;4.206;2023-03-03T03:34:44;5.00;;;3.47;;
58615;SDS011;44385;51.992;4.206;2023-03-03T03:37:10;8.60;;;4.57;;
58615;SDS011;44385;51.992;4.206;2023-03-03T03:39:37;10.90;;;4.25;;
58615;SDS011;44385;51.992;4.206;2023-03-03T03:42:03;8.98;;;3.97;;
58615;SDS011;44385;51.992;4.206;2023-03-03T03:44:30;6.93;;;3.80;;
58615;SDS011;44385;51.992;4.206;2023-03-03T03:46:56;6.38;;;3.83;;
58615;SDS011;44385;51.992;4.206;2023-03-03T03:49:22;11.98;;;4.30;;
58615;SDS011;44385;51.992;4.206;2023-03-03T03:51:50;10.18;;;3.88;;
58615;SDS011;44385;51.992;4.206;2023-03-03T03:54:16;10.55;;;4.40;;
58615;SDS011;44385;51.992;4.206;2023-03-03T03:56:43;7.63;;;4.20;;
58615;SDS011;44385;51.992;4.206;2023-03-03T03:59:09;6.38;;;4.10;;
58615;SDS011;44385;51.992;4.206;2023-03-03T04:01:35;8.38;;;4.35;;
58615;SDS011;44385;51.992;4.206;2023-03-03T04:04:02;7.20;;;4.03;;
58615;SDS011;44385;51.992;4.206;2023-03-03T04:06:29;7.20;;;3.75;;
58615;SDS011;44385;51.992;4.206;2023-03-03T04:08:56;10.25;;;4.15;;
58615;SDS011;44385;51.992;4.206;2023-03-03T04:11:23;8.95;;;4.22;;
58615;SDS011;44385;51.992;4.206;2023-03-03T04:13:49;5.72;;;3.50;;
58615;SDS011;44385;51.992;4.206;2023-03-03T04:16:16;5.05;;;3.58;;
58615;SDS011;44385;51.992;4.206;2023-03-03T04:18:42;8.48;;;4.22;;
58615;SDS011;44385;51.992;4.206;2023-03-03T04:21:10;9.10;;;3.65;;
58615;SDS011;44385;51.992;4.206;2023-03-03T04:23:36;7.35;;;4.15;;
58615;SDS011;44385;51.992;4.206;2023-03-03T04:26:04;6.45;;;3.92;;
58615;SDS011;44385;51.992;4.206;2023-03-03T04:28:31;7.22;;;4.00;;
58615;SDS011;44385;51.992;4.206;2023-03-03T04:30:57;7.38;;;4.15;;
58615;SDS011;44385;51.992;4.206;2023-03-03T04:33:24;6.75;;;4.15;;
58615;SDS011;44385;51.992;4.206;2023-03-03T04:35:52;8.25;;;4.15;;
58615;SDS011;44385;51.992;4.206;2023-03-03T04:38:19;7.15;;;4.13;;
58615;SDS011;44385;51.992;4.206;2023-03-03T04:40:45;8.68;;;4.45;;
58615;SDS011;44385;51.992;4.206;2023-03-03T04:43:13;7.43;;;4.25;;
58615;SDS011;44385;51.992;4.206;2023-03-03T04:45:40;9.77;;;4.97;;
58615;SDS011;44385;51.992;4.206;2023-03-03T04:48:06;8.70;;;5.10;;
58615;SDS011;44385;51.992;4.206;2023-03-03T04:50:33;7.22;;;4.85;;
58615;SDS011;44385;51.992;4.206;2023-03-03T04:52:59;7.95;;;4.28;;
58615;SDS011;44385;51.992;4.206;2023-03-03T04:55:25;8.70;;;4.65;;
58615;SDS011;44385;51.992;4.206;2023-03-03T04:57:52;8.60;;;5.07;;
58615;SDS011;44385;51.992;4.206;2023-03-03T05:00:20;12.23;;;5.50;;
58615;SDS011;44385;51.992;4.206;2023-03-03T05:02:47;11.10;;;5.53;;
58615;SDS011;44385;51.992;4.206;2023-03-03T05:05:13;8.13;;;5.60;;
58615;SDS011;44385;51.992;4.206;2023-03-03T05:07:40;7.47;;;5.10;;
58615;SDS011;44385;51.992;4.206;2023-03-03T05:10:07;6.13;;;5.13;;
58615;SDS011;44385;51.992;4.206;2023-03-03T05:12:33;8.13;;;5.78;;
58615;SDS011;44385;51.992;4.206;2023-03-03T05:15:00;9.73;;;6.07;;
58615;SDS011;44385;51.992;4.206;2023-03-03T05:17:28;9.55;;;6.25;;
58615;SDS011;44385;51.992;4.206;2023-03-03T05:19:54;11.05;;;6.75;;
58615;SDS011;44385;51.992;4.206;2023-03-03T05:22:21;13.00;;;6.38;;
58615;SDS011;44385;51.992;4.206;2023-03-03T05:24:47;7.72;;;6.10;;
58615;SDS011;44385;51.992;4.206;2023-03-03T05:27:14;10.20;;;6.63;;
58615;SDS011;44385;51.992;4.206;2023-03-03T05:29:41;9.43;;;6.03;;
58615;SDS011;44385;51.992;4.206;2023-03-03T05:32:07;9.85;;;7.43;;
58615;SDS011;44385;51.992;4.206;2023-03-03T05:34:35;11.25;;;7.65;;
58615;SDS011;44385;51.992;4.206;2023-03-03T05:37:01;10.75;;;7.40;;
58615;SDS011;44385;51.992;4.206;2023-03-03T05:39:30;11.80;;;6.72;;
58615;SDS011;44385;51.992;4.206;2023-03-03T05:41:57;14.77;;;8.48;;
58615;SDS011;44385;51.992;4.206;2023-03-03T05:44:24;11.30;;;7.05;;
58615;SDS011;44385;51.992;4.206;2023-03-03T05:46:50;11.02;;;7.88;;
58615;SDS011;44385;51.992;4.206;2023-03-03T05:49:17;10.10;;;7.25;;
58615;SDS011;44385;51.992;4.206;2023-03-03T05:51:45;12.57;;;7.45;;
58615;SDS011;44385;51.992;4.206;2023-03-03T05:54:11;10.90;;;7.75;;
58615;SDS011;44385;51.992;4.206;2023-03-03T05:56:38;14.63;;;7.75;;
58615;SDS011;44385;51.992;4.206;2023-03-03T05:59:04;12.88;;;9.15;;
58615;SDS011;44385;51.992;4.206;2023-03-03T06:01:30;18.20;;;10.27;;
58615;SDS011;44385;51.992;4.206;2023-03-03T06:03:57;20.67;;;13.43;;
58615;SDS011;44385;51.992;4.206;2023-03-03T06:06:23;17.48;;;12.13;;
58615;SDS011;44385;51.992;4.206;2023-03-03T06:08:51;17.95;;;12.90;;
58615;SDS011;44385;51.992;4.206;2023-03-03T06:11:18;19.42;;;12.63;;
58615;SDS011;44385;51.992;4.206;2023-03-03T06:13:44;17.08;;;12.50;;
58615;SDS011;44385;51.992;4.206;2023-03-03T06:16:10;25.55;;;12.82;;
58615;SDS011;44385;51.992;4.206;2023-03-03T06:18:37;29.55;;;12.55;;
58615;SDS011;44385;51.992;4.206;2023-03-03T06:21:03;45.10;;;13.35;;
58615;SDS011;44385;51.992;4.206;2023-03-03T06:23:30;55.55;;;13.30;;
58615;SDS011;44385;51.992;4.206;2023-03-03T06:25:58;23.67;;;13.07;;
58615;SDS011;44385;51.992;4.206;2023-03-03T06:28:24;64.53;;;14.80;;
58615;SDS011;44385;51.992;4.206;2023-03-03T06:30:51;22.10;;;12.18;;
58615;SDS011;44385;51.992;4.206;2023-03-03T06:33:18;22.80;;;13.18;;
58615;SDS011;44385;51.992;4.206;2023-03-03T06:35:47;27.33;;;13.60;;
58615;SDS011;44385;51.992;4.206;2023-03-03T06:38:14;38.53;;;14.50;;
58615;SDS011;44385;51.992;4.206;2023-03-03T06:40:40;57.13;;;15.65;;
58615;SDS011;44385;51.992;4.206;2023-03-03T06:43:08;30.33;;;13.52;;
58615;SDS011;44385;51.992;4.206;2023-03-03T06:45:34;40.30;;;14.68;;
58615;SDS011;44385;51.992;4.206;2023-03-03T06:48:01;31.67;;;14.70;;
58615;SDS011;44385;51.992;4.206;2023-03-03T06:50:30;21.25;;;13.98;;
58615;SDS011;44385;51.992;4.206;2023-03-03T06:52:58;17.58;;;12.95;;
58615;SDS011;44385;51.992;4.206;2023-03-03T06:55:27;29.70;;;13.57;;
58615;SDS011;44385;51.992;4.206;2023-03-03T06:57:53;21.15;;;13.30;;
58615;SDS011;44385;51.992;4.206;2023-03-03T07:00:23;19.67;;;12.75;;
58615;SDS011;44385;51.992;4.206;2023-03-03T07:02:51;36.05;;;13.65;;
58615;SDS011;44385;51.992;4.206;2023-03-03T07:05:19;28.73;;;12.90;;
58615;SDS011;44385;51.992;4.206;2023-03-03T07:07:45;25.88;;;14.55;;
58615;SDS011;44385;51.992;4.206;2023-03-03T07:10:15;18.38;;;12.98;;
58615;SDS011;44385;51.992;4.206;2023-03-03T07:12:43;17.30;;;12.05;;
58615;SDS011;44385;51.992;4.206;2023-03-03T07:15:14;18.48;;;12.57;;
58615;SDS011;44385;51.992;4.206;2023-03-03T07:17:43;23.70;;;13.75;;
58615;SDS011;44385;51.992;4.206;2023-03-03T07:20:10;32.40;;;14.77;;
58615;SDS011;44385;51.992;4.206;2023-03-03T07:22:40;32.72;;;13.88;;
58615;SDS011;44385;51.992;4.206;2023-03-03T07:25:08;21.85;;;12.43;;
58615;SDS011;44385;51.992;4.206;2023-03-03T07:27:43;21.05;;;13.25;;
58615;SDS011;44385;51.992;4.206;2023-03-03T07:30:16;27.42;;;15.23;;
58615;SDS011;44385;51.992;4.206;2023-03-03T07:32:45;23.13;;;13.55;;
58615;SDS011;44385;51.992;4.206;2023-03-03T07:35:21;23.35;;;13.57;;
58615;SDS011;44385;51.992;4.206;2023-03-03T07:37:50;18.25;;;12.85;;
58615;SDS011;44385;51.992;4.206;2023-03-03T07:43:11;18.35;;;11.68;;
58615;SDS011;44385;51.992;4.206;2023-03-03T07:45:42;23.58;;;14.43;;
58615;SDS011;44385;51.992;4.206;2023-03-03T07:48:14;19.58;;;14.43;;
58615;SDS011;44385;51.992;4.206;2023-03-03T07:50:44;24.30;;;13.32;;
58615;SDS011;44385;51.992;4.206;2023-03-03T07:53:12;19.75;;;13.13;;
58615;SDS011;44385;51.992;4.206;2023-03-03T07:55:39;20.23;;;14.85;;
58615;SDS011;44385;51.992;4.206;2023-03-03T07:58:20;18.80;;;13.32;;
58615;SDS011;44385;51.992;4.206;2023-03-03T08:03:39;25.65;;;14.20;;
58615;SDS011;44385;51.992;4.206;2023-03-03T08:06:07;21.33;;;14.35;;
58615;SDS011;44385;51.992;4.206;2023-03-03T08:08:35;25.75;;;15.77;;
58615;SDS011;44385;51.992;4.206;2023-03-03T08:11:02;20.15;;;13.90;;
58615;SDS011;44385;51.992;4.206;2023-03-03T08:13:35;16.83;;;12.23;;
58615;SDS011;44385;51.992;4.206;2023-03-03T08:16:03;18.48;;;11.50;;
58615;SDS011;44385;51.992;4.206;2023-03-03T08:18:45;15.35;;;11.35;;
58615;SDS011;44385;51.992;4.206;2023-03-03T08:21:12;20.73;;;13.00;;
58615;SDS011;44385;51.992;4.206;2023-03-03T08:23:39;18.60;;;11.55;;
58615;SDS011;44385;51.992;4.206;2023-03-03T08:26:06;15.95;;;11.07;;
58615;SDS011;44385;51.992;4.206;2023-03-03T08:28:32;15.50;;;11.27;;
58615;SDS011;44385;51.992;4.206;2023-03-03T08:30:58;13.82;;;9.55;;
58615;SDS011;44385;51.992;4.206;2023-03-03T08:33:25;14.68;;;10.20;;
58615;SDS011;44385;51.992;4.206;2023-03-03T08:35:53;17.58;;;10.75;;
58615;SDS011;44385;51.992;4.206;2023-03-03T08:38:20;18.45;;;11.38;;
58615;SDS011;44385;51.992;4.206;2023-03-03T08:40:47;15.00;;;10.40;;
58615;SDS011;44385;51.992;4.206;2023-03-03T08:43:13;19.00;;;11.73;;
58615;SDS011;44385;51.992;4.206;2023-03-03T08:45:41;17.17;;;11.20;;
58615;SDS011;44385;51.992;4.206;2023-03-03T08:48:08;15.05;;;10.02;;
58615;SDS011;44385;51.992;4.206;2023-03-03T08:50:34;15.18;;;10.75;;
58615;SDS011;44385;51.992;4.206;2023-03-03T08:53:02;15.85;;;9.95;;
58615;SDS011;44385;51.992;4.206;2023-03-03T08:55:29;12.98;;;9.98;;
58615;SDS011;44385;51.992;4.206;2023-03-03T08:57:55;17.98;;;11.25;;
58615;SDS011;44385;51.992;4.206;2023-03-03T09:00:22;16.17;;;9.52;;
58615;SDS011;44385;51.992;4.206;2023-03-03T09:02:49;14.85;;;10.70;;
58615;SDS011;44385;51.992;4.206;2023-03-03T09:05:16;17.20;;;10.52;;
58615;SDS011;44385;51.992;4.206;2023-03-03T09:07:43;13.65;;;9.40;;
58615;SDS011;44385;51.992;4.206;2023-03-03T09:10:12;18.52;;;10.50;;
58615;SDS011;44385;51.992;4.206;2023-03-03T09:12:41;15.32;;;9.10;;
58615;SDS011;44385;51.992;4.206;2023-03-03T09:15:15;15.40;;;9.63;;
58615;SDS011;44385;51.992;4.206;2023-03-03T09:17:43;17.63;;;9.90;;
58615;SDS011;44385;51.992;4.206;2023-03-03T09:20:16;16.52;;;10.13;;
58615;SDS011;44385;51.992;4.206;2023-03-03T09:22:47;19.70;;;11.73;;
58615;SDS011;44385;51.992;4.206;2023-03-03T09:25:19;14.63;;;10.00;;
58615;SDS011;44385;51.992;4.206;2023-03-03T09:27:47;14.35;;;9.35;;
58615;SDS011;44385;51.992;4.206;2023-03-03T09:30:20;17.15;;;9.82;;
58615;SDS011;44385;51.992;4.206;2023-03-03T09:32:52;15.50;;;9.90;;
58615;SDS011;44385;51.992;4.206;2023-03-03T09:35:24;11.70;;;9.10;;
58615;SDS011;44385;51.992;4.206;2023-03-03T09:37:51;15.40;;;9.77;;
58615;SDS011;44385;51.992;4.206;2023-03-03T09:40:26;17.02;;;8.40;;
58615;SDS011;44385;51.992;4.206;2023-03-03T09:43:03;12.55;;;8.50;;
58615;SDS011;44385;51.992;4.206;2023-03-03T09:51:06;13.07;;;8.13;;
58615;SDS011;44385;51.992;4.206;2023-03-03T09:53:45;11.02;;;8.07;;
58615;SDS011;44385;51.992;4.206;2023-03-03T09:58:52;10.20;;;7.35;;
58615;SDS011;44385;51.992;4.206;2023-03-03T10:01:35;9.82;;;7.53;;
58615;SDS011;44385;51.992;4.206;2023-03-03T10:04:11;9.52;;;7.07;;
58615;SDS011;44385;51.992;4.206;2023-03-03T10:06:41;9.57;;;6.70;;
58615;SDS011;44385;51.992;4.206;2023-03-03T10:09:17;7.17;;;5.40;;
58615;SDS011;44385;51.992;4.206;2023-03-03T10:11:49;8.50;;;5.50;;
58615;SDS011;44385;51.992;4.206;2023-03-03T10:14:28;7.72;;;5.55;;
58615;SDS011;44385;51.992;4.206;2023-03-03T10:17:04;5.80;;;5.13;;
58615;SDS011;44385;51.992;4.206;2023-03-03T10:19:35;5.90;;;4.30;;
58615;SDS011;44385;51.992;4.206;2023-03-03T10:22:06;5.00;;;3.47;;
58615;SDS011;44385;51.992;4.206;2023-03-03T10:24:42;4.57;;;3.60;;
58615;SDS011;44385;51.992;4.206;2023-03-03T10:27:14;6.63;;;3.55;;
58615;SDS011;44385;51.992;4.206;2023-03-03T10:29:49;4.10;;;3.47;;
58615;SDS011;44385;51.992;4.206;2023-03-03T10:35:29;4.15;;;3.63;;
58615;SDS011;44385;51.992;4.206;2023-03-03T10:38:02;5.40;;;2.70;;
58615;SDS011;44385;51.992;4.206;2023-03-03T10:40:36;4.13;;;2.85;;
58615;SDS011;44385;51.992;4.206;2023-03-03T10:43:09;5.30;;;2.53;;
58615;SDS011;44385;51.992;4.206;2023-03-03T10:45:44;4.47;;;2.85;;
58615;SDS011;44385;51.992;4.206;2023-03-03T10:51:01;4.72;;;2.88;;
58615;SDS011;44385;51.992;4.206;2023-03-03T10:53:31;6.78;;;3.13;;
58615;SDS011;44385;51.992;4.206;2023-03-03T10:56:08;5.05;;;2.53;;
58615;SDS011;44385;51.992;4.206;2023-03-03T10:58:43;4.38;;;2.63;;
58615;SDS011;44385;51.992;4.206;2023-03-03T11:01:13;3.00;;;2.08;;
58615;SDS011;44385;51.992;4.206;2023-03-03T11:03:52;3.70;;;1.83;;
58615;SDS011;44385;51.992;4.206;2023-03-03T11:06:22;2.92;;;2.15;;
58615;SDS011;44385;51.992;4.206;2023-03-03T11:08:51;4.82;;;2.72;;
58615;SDS011;44385;51.992;4.206;2023-03-03T11:11:19;3.70;;;2.00;;
58615;SDS011;44385;51.992;4.206;2023-03-03T11:13:50;3.70;;;2.40;;
58615;SDS011;44385;51.992;4.206;2023-03-03T11:16:25;2.53;;;1.92;;
58615;SDS011;44385;51.992;4.206;2023-03-03T11:21:28;2.58;;;2.20;;
58615;SDS011;44385;51.992;4.206;2023-03-03T11:24:01;3.97;;;2.70;;
58615;SDS011;44385;51.992;4.206;2023-03-03T11:26:37;4.43;;;2.58;;
58615;SDS011;44385;51.992;4.206;2023-03-03T11:29:09;3.03;;;2.10;;
58615;SDS011;44385;51.992;4.206;2023-03-03T11:31:40;3.95;;;2.70;;
58615;SDS011;44385;51.992;4.206;2023-03-03T11:34:12;4.20;;;3.08;;
58615;SDS011;44385;51.992;4.206;2023-03-03T11:36:42;4.43;;;2.40;;
58615;SDS011;44385;51.992;4.206;2023-03-03T11:39:09;3.13;;;2.35;;
58615;SDS011;44385;51.992;4.206;2023-03-03T11:41:36;4.50;;;2.45;;
58615;SDS011;44385;51.992;4.206;2023-03-03T11:44:08;2.90;;;1.85;;
58615;SDS011;44385;51.992;4.206;2023-03-03T11:46:37;2.92;;;1.60;;
58615;SDS011;44385;51.992;4.206;2023-03-03T11:49:08;5.90;;;1.77;;
58615;SDS011;44385;51.992;4.206;2023-03-03T11:51:40;5.93;;;2.00;;
58615;SDS011;44385;51.992;4.206;2023-03-03T11:54:08;4.20;;;1.90;;
58615;SDS011;44385;51.992;4.206;2023-03-03T11:56:38;2.70;;;1.65;;
58615;SDS011;44385;51.992;4.206;2023-03-03T11:59:15;3.50;;;1.80;;
58615;SDS011;44385;51.992;4.206;2023-03-03T12:01:45;5.05;;;1.50;;
58615;SDS011;44385;51.992;4.206;2023-03-03T12:04:17;4.28;;;2.00;;
58615;SDS011;44385;51.992;4.206;2023-03-03T12:06:49;4.90;;;1.40;;
58615;SDS011;44385;51.992;4.206;2023-03-03T12:09:22;3.53;;;1.65;;
58615;SDS011;44385;51.992;4.206;2023-03-03T12:11:52;2.78;;;1.50;;
58615;SDS011;44385;51.992;4.206;2023-03-03T12:14:29;5.55;;;1.85;;
58615;SDS011;44385;51.992;4.206;2023-03-03T12:17:02;8.93;;;1.90;;
58615;SDS011;44385;51.992;4.206;2023-03-03T12:19:36;4.00;;;1.48;;
58615;SDS011;44385;51.992;4.206;2023-03-03T12:22:07;4.22;;;1.88;;
58615;SDS011;44385;51.992;4.206;2023-03-03T12:24:41;3.08;;;1.25;;
58615;SDS011;44385;51.992;4.206;2023-03-03T12:27:13;3.97;;;1.60;;
58615;SDS011;44385;51.992;4.206;2023-03-03T12:29:44;1.55;;;1.05;;
58615;SDS011;44385;51.992;4.206;2023-03-03T12:32:17;5.47;;;1.60;;
58615;SDS011;44385;51.992;4.206;2023-03-03T12:34:50;2.80;;;1.30;;
58615;SDS011;44385;51.992;4.206;2023-03-03T12:37:22;2.58;;;1.10;;
58615;SDS011;44385;51.992;4.206;2023-03-03T12:39:54;2.35;;;0.82;;
58615;SDS011;44385;51.992;4.206;2023-03-03T12:42:23;3.25;;;0.95;;
58615;SDS011;44385;51.992;4.206;2023-03-03T12:44:52;2.65;;;1.00;;
58615;SDS011;44385;51.992;4.206;2023-03-03T12:47:24;2.00;;;1.23;;
58615;SDS011;44385;51.992;4.206;2023-03-03T12:52:22;4.38;;;1.05;;
58615;SDS011;44385;51.992;4.206;2023-03-03T12:54:57;7.47;;;1.60;;
58615;SDS011;44385;51.992;4.206;2023-03-03T12:57:29;8.35;;;1.67;;
58615;SDS011;44385;51.992;4.206;2023-03-03T13:00:10;3.05;;;0.93;;
58615;SDS011;44385;51.992;4.206;2023-03-03T13:02:40;4.90;;;1.65;;
58615;SDS011;44385;51.992;4.206;2023-03-03T13:07:36;2.80;;;1.30;;
58615;SDS011;44385;51.992;4.206;2023-03-03T13:10:08;5.57;;;1.55;;
58615;SDS011;44385;51.992;4.206;2023-03-03T13:12:38;4.22;;;1.08;;
58615;SDS011;44385;51.992;4.206;2023-03-03T13:15:11;2.92;;;0.90;;
58615;SDS011;44385;51.992;4.206;2023-03-03T13:17:41;2.75;;;1.10;;
58615;SDS011;44385;51.992;4.206;2023-03-03T13:20:14;2.88;;;1.00;;
58615;SDS011;44385;51.992;4.206;2023-03-03T13:22:45;2.63;;;1.10;;
58615;SDS011;44385;51.992;4.206;2023-03-03T13:25:26;8.38;;;1.40;;
58615;SDS011;44385;51.992;4.206;2023-03-03T13:27:58;2.28;;;1.13;;
58615;SDS011;44385;51.992;4.206;2023-03-03T13:30:26;3.58;;;1.45;;
58615;SDS011;44385;51.992;4.206;2023-03-03T13:32:56;2.25;;;1.10;;
58615;SDS011;44385;51.992;4.206;2023-03-03T13:35:31;3.08;;;1.60;;
58615;SDS011;44385;51.992;4.206;2023-03-03T13:37:59;3.78;;;1.50;;
58615;SDS011;44385;51.992;4.206;2023-03-03T13:42:54;3.03;;;1.13;;
58615;SDS011;44385;51.992;4.206;2023-03-03T13:45:24;2.53;;;0.77;;
58615;SDS011;44385;51.992;4.206;2023-03-03T13:47:52;2.75;;;1.10;;
58615;SDS011;44385;51.992;4.206;2023-03-03T13:50:22;2.65;;;0.77;;
58615;SDS011;44385;51.992;4.206;2023-03-03T13:55:21;1.92;;;0.70;;
58615;SDS011;44385;51.992;4.206;2023-03-03T13:57:58;3.05;;;0.90;;
58615;SDS011;44385;51.992;4.206;2023-03-03T14:00:37;1.85;;;0.80;;
58615;SDS011;44385;51.992;4.206;2023-03-03T14:03:10;5.65;;;1.08;;
58615;SDS011;44385;51.992;4.206;2023-03-03T14:05:40;3.08;;;1.10;;
58615;SDS011;44385;51.992;4.206;2023-03-03T14:08:09;3.20;;;1.25;;
58615;SDS011;44385;51.992;4.206;2023-03-03T14:10:40;6.03;;;1.40;;
58615;SDS011;44385;51.992;4.206;2023-03-03T14:13:08;5.05;;;1.33;;
58615;SDS011;44385;51.992;4.206;2023-03-03T14:15:37;2.90;;;1.23;;
58615;SDS011;44385;51.992;4.206;2023-03-03T14:18:19;5.45;;;1.50;;
58615;SDS011;44385;51.992;4.206;2023-03-03T14:20:47;0.93;;;0.90;;
58615;SDS011;44385;51.992;4.206;2023-03-03T14:23:15;4.57;;;1.27;;
58615;SDS011;44385;51.992;4.206;2023-03-03T14:25:51;4.40;;;1.20;;
58615;SDS011;44385;51.992;4.206;2023-03-03T14:28:18;1.75;;;0.90;;
58615;SDS011;44385;51.992;4.206;2023-03-03T14:30:45;4.13;;;1.23;;
58615;SDS011;44385;51.992;4.206;2023-03-03T14:33:17;3.10;;;1.30;;
58615;SDS011;44385;51.992;4.206;2023-03-03T14:35:47;1.92;;;0.70;;
58615;SDS011;44385;51.992;4.206;2023-03-03T14:38:16;3.17;;;1.30;;
58615;SDS011;44385;51.992;4.206;2023-03-03T14:40:43;4.35;;;1.33;;
58615;SDS011;44385;51.992;4.206;2023-03-03T14:43:20;2.65;;;0.90;;
58615;SDS011;44385;51.992;4.206;2023-03-03T14:45:47;5.20;;;1.50;;
58615;SDS011;44385;51.992;4.206;2023-03-03T14:48:14;1.80;;;0.90;;
58615;SDS011;44385;51.992;4.206;2023-03-03T14:50:42;2.30;;;0.98;;
58615;SDS011;44385;51.992;4.206;2023-03-03T14:53:13;3.42;;;0.95;;
58615;SDS011;44385;51.992;4.206;2023-03-03T14:55:41;2.47;;;0.90;;
58615;SDS011;44385;51.992;4.206;2023-03-03T14:58:11;1.90;;;1.00;;
58615;SDS011;44385;51.992;4.206;2023-03-03T15:00:50;3.53;;;1.40;;
58615;SDS011;44385;51.992;4.206;2023-03-03T15:03:31;3.00;;;1.27;;
58615;SDS011;44385;51.992;4.206;2023-03-03T15:06:07;2.75;;;0.82;;
58615;SDS011;44385;51.992;4.206;2023-03-03T15:08:35;6.45;;;1.33;;
58615;SDS011;44385;51.992;4.206;2023-03-03T15:11:11;2.13;;;0.77;;
58615;SDS011;44385;51.992;4.206;2023-03-03T15:13:39;2.30;;;0.77;;
58615;SDS011;44385;51.992;4.206;2023-03-03T15:16:11;4.13;;;0.93;;
58615;SDS011;44385;51.992;4.206;2023-03-03T15:21:28;5.10;;;0.80;;
58615;SDS011;44385;51.992;4.206;2023-03-03T15:26:26;2.75;;;0.88;;
58615;SDS011;44385;51.992;4.206;2023-03-03T15:28:56;3.53;;;0.77;;
58615;SDS011;44385;51.992;4.206;2023-03-03T15:31:29;3.53;;;1.20;;
58615;SDS011;44385;51.992;4.206;2023-03-03T15:34:01;3.15;;;0.80;;
58615;SDS011;44385;51.992;4.206;2023-03-03T15:36:30;2.28;;;0.93;;